sensor_id;sensor_type;location;lat;lon;timestamp;temperature;humidity
20041;DHT22;10181;48.072;9.884;2023-04-28T00:00:49;8.60;99.90
20041;DHT22;10181;48.072;9.884;2023-04-28T00:03:15;8.50;99.90
20041;DHT22;10181;48.072;9.884;2023-04-28T00:05:40;8.60;99.90
20041;DHT22;10181;48.072;9.884;2023-04-28T00:08:06;8.60;99.90
20041;DHT22;10181;48.072;9.884;2023-04-28T00:10:32;8.60;99.90
20041;DHT22;10181;48.072;9.884;2023-04-28T00:12:58;8.60;99.90
20041;DHT22;10181;48.072;9.884;2023-04-28T00:15:24;8.70;99.90
20041;DHT22;10181;48.072;9.884;2023-04-28T00:17:50;8.70;99.90
20041;DHT22;10181;48.072;9.884;2023-04-28T00:20:15;8.70;99.90
20041;DHT22;10181;48.072;9.884;2023-04-28T00:22:41;8.70;99.90
20041;DHT22;10181;48.072;9.884;2023-04-28T00:25:07;8.70;99.90
20041;DHT22;10181;48.072;9.884;2023-04-28T00:27:33;8.70;99.90
20041;DHT22;10181;48.072;9.884;2023-04-28T00:29:59;8.70;99.90
20041;DHT22;10181;48.072;9.884;2023-04-28T00:32:25;8.70;99.90
20041;DHT22;10181;48.072;9.884;2023-04-28T00:34:50;8.70;99.90
20041;DHT22;10181;48.072;9.884;2023-04-28T00:37:18;8.80;99.90
20041;DHT22;10181;48.072;9.884;2023-04-28T00:39:43;8.90;99.90
20041;DHT22;10181;48.072;9.884;2023-04-28T00:42:13;8.90;99.90
20041;DHT22;10181;48.072;9.884;2023-04-28T00:44:39;9.00;99.90
20041;DHT22;10181;48.072;9.884;2023-04-28T00:47:09;9.00;99.90
20041;DHT22;10181;48.072;9.884;2023-04-28T00:49:35;9.00;99.90
20041;DHT22;10181;48.072;9.884;2023-04-28T00:52:04;9.10;99.90
20041;DHT22;10181;48.072;9.884;2023-04-28T00:54:34;9.10;99.90
20041;DHT22;10181;48.072;9.884;2023-04-28T00:57:00;9.10;99.90
20041;DHT22;10181;48.072;9.884;2023-04-28T00:59:27;9.10;99.90
20041;DHT22;10181;48.072;9.884;2023-04-28T01:01:53;9.10;99.90
20041;DHT22;10181;48.072;9.884;2023-04-28T01:04:19;9.10;99.90
20041;DHT22;10181;48.072;9.884;2023-04-28T01:06:47;9.00;99.90
20041;DHT22;10181;48.072;9.884;2023-04-28T01:09:13;9.00;99.90
20041;DHT22;10181;48.072;9.884;2023-04-28T01:11:39;8.90;99.90
20041;DHT22;10181;48.072;9.884;2023-04-28T01:14:04;8.90;99.90
20041;DHT22;10181;48.072;9.884;2023-04-28T01:16:30;8.90;99.90
20041;DHT22;10181;48.072;9.884;2023-04-28T01:18:57;9.00;99.90
20041;DHT22;10181;48.072;9.884;2023-04-28T01:21:31;9.00;99.90
20041;DHT22;10181;48.072;9.884;2023-04-28T01:23:58;9.00;99.90
20041;DHT22;10181;48.072;9.884;2023-04-28T01:26:24;9.10;99.90
20041;DHT22;10181;48.072;9.884;2023-04-28T01:28:50;9.10;99.90
20041;DHT22;10181;48.072;9.884;2023-04-28T01:31:15;9.10;99.90
20041;DHT22;10181;48.072;9.884;2023-04-28T01:33:41;9.10;99.90
20041;DHT22;10181;48.072;9.884;2023-04-28T01:36:07;9.10;99.90
20041;DHT22;10181;48.072;9.884;2023-04-28T01:38:33;9.10;99.90
20041;DHT22;10181;48.072;9.884;2023-04-28T01:40:58;9.10;99.90
20041;DHT22;10181;48.072;9.884;2023-04-28T01:43:24;9.10;99.90
20041;DHT22;10181;48.072;9.884;2023-04-28T01:45:50;9.10;99.90
20041;DHT22;10181;48.072;9.884;2023-04-28T01:48:16;9.10;99.90
20041;DHT22;10181;48.072;9.884;2023-04-28T01:50:42;9.10;99.90
20041;DHT22;10181;48.072;9.884;2023-04-28T01:53:07;9.00;99.90
20041;DHT22;10181;48.072;9.884;2023-04-28T01:55:33;9.00;99.90
20041;DHT22;10181;48.072;9.884;2023-04-28T01:57:59;8.90;99.90
20041;DHT22;10181;48.072;9.884;2023-04-28T02:00:24;8.90;99.90
20041;DHT22;10181;48.072;9.884;2023-04-28T02:02:51;8.90;99.90
20041;DHT22;10181;48.072;9.884;2023-04-28T02:05:17;8.90;99.90
20041;DHT22;10181;48.072;9.884;2023-04-28T02:07:42;9.00;99.90
20041;DHT22;10181;48.072;9.884;2023-04-28T02:10:08;9.00;99.90
20041;DHT22;10181;48.072;9.884;2023-04-28T02:12:34;9.00;99.90
20041;DHT22;10181;48.072;9.884;2023-04-28T02:15:00;9.00;99.90
20041;DHT22;10181;48.072;9.884;2023-04-28T02:17:25;9.00;99.90
20041;DHT22;10181;48.072;9.884;2023-04-28T02:19:54;9.00;99.90
20041;DHT22;10181;48.072;9.884;2023-04-28T02:22:23;9.00;99.90
20041;DHT22;10181;48.072;9.884;2023-04-28T02:24:48;9.00;99.90
20041;DHT22;10181;48.072;9.884;2023-04-28T02:27:14;9.00;99.90
20041;DHT22;10181;48.072;9.884;2023-04-28T02:29:40;9.00;99.90
20041;DHT22;10181;48.072;9.884;2023-04-28T02:32:06;9.10;99.90
20041;DHT22;10181;48.072;9.884;2023-04-28T02:34:32;9.10;99.90
20041;DHT22;10181;48.072;9.884;2023-04-28T02:36:58;9.10;99.90
20041;DHT22;10181;48.072;9.884;2023-04-28T02:39:23;9.20;99.90
20041;DHT22;10181;48.072;9.884;2023-04-28T02:41:51;9.20;99.90
20041;DHT22;10181;48.072;9.884;2023-04-28T02:44:17;9.30;99.90
20041;DHT22;10181;48.072;9.884;2023-04-28T02:46:43;9.40;99.90
20041;DHT22;10181;48.072;9.884;2023-04-28T02:49:08;9.50;99.90
20041;DHT22;10181;48.072;9.884;2023-04-28T02:51:34;9.60;99.90
20041;DHT22;10181;48.072;9.884;2023-04-28T02:53:59;9.70;99.90
20041;DHT22;10181;48.072;9.884;2023-04-28T02:56:25;9.90;99.90
20041;DHT22;10181;48.072;9.884;2023-04-28T02:58:51;9.90;99.90
20041;DHT22;10181;48.072;9.884;2023-04-28T03:01:17;9.90;99.90
20041;DHT22;10181;48.072;9.884;2023-04-28T03:03:42;10.00;99.90
20041;DHT22;10181;48.072;9.884;2023-04-28T03:06:08;10.00;99.90
20041;DHT22;10181;48.072;9.884;2023-04-28T03:08:34;10.00;99.90
20041;DHT22;10181;48.072;9.884;2023-04-28T03:10:59;10.10;99.90
20041;DHT22;10181;48.072;9.884;2023-04-28T03:13:27;10.10;99.90
20041;DHT22;10181;48.072;9.884;2023-04-28T03:15:54;10.10;99.90
20041;DHT22;10181;48.072;9.884;2023-04-28T03:18:20;10.10;99.90
20041;DHT22;10181;48.072;9.884;2023-04-28T03:20:47;10.00;99.90
20041;DHT22;10181;48.072;9.884;2023-04-28T03:23:12;9.90;99.90
20041;DHT22;10181;48.072;9.884;2023-04-28T03:25:38;9.90;99.90
20041;DHT22;10181;48.072;9.884;2023-04-28T03:28:04;9.80;99.90
20041;DHT22;10181;48.072;9.884;2023-04-28T03:30:30;9.80;99.90
20041;DHT22;10181;48.072;9.884;2023-04-28T03:32:55;9.80;99.90
20041;DHT22;10181;48.072;9.884;2023-04-28T03:35:21;9.80;99.90
20041;DHT22;10181;48.072;9.884;2023-04-28T03:37:47;9.90;99.90
20041;DHT22;10181;48.072;9.884;2023-04-28T03:40:12;10.00;99.90
20041;DHT22;10181;48.072;9.884;2023-04-28T03:42:38;10.00;99.90
20041;DHT22;10181;48.072;9.884;2023-04-28T03:45:04;10.00;99.90
20041;DHT22;10181;48.072;9.884;2023-04-28T03:47:29;10.00;99.90
20041;DHT22;10181;48.072;9.884;2023-04-28T03:49:55;10.00;99.90
20041;DHT22;10181;48.072;9.884;2023-04-28T03:52:23;10.10;99.90
20041;DHT22;10181;48.072;9.884;2023-04-28T03:54:48;10.20;99.90
20041;DHT22;10181;48.072;9.884;2023-04-28T03:57:14;10.30;99.90
20041;DHT22;10181;48.072;9.884;2023-04-28T03:59:40;10.40;99.90
20041;DHT22;10181;48.072;9.884;2023-04-28T04:02:06;10.30;99.90
20041;DHT22;10181;48.072;9.884;2023-04-28T04:04:31;10.30;99.90
20041;DHT22;10181;48.072;9.884;2023-04-28T04:06:57;10.20;99.90
20041;DHT22;10181;48.072;9.884;2023-04-28T04:09:23;10.20;99.90
20041;DHT22;10181;48.072;9.884;2023-04-28T04:11:49;10.10;99.90
20041;DHT22;10181;48.072;9.884;2023-04-28T04:14:14;10.00;99.90
20041;DHT22;10181;48.072;9.884;2023-04-28T04:16:40;10.00;99.90
20041;DHT22;10181;48.072;9.884;2023-04-28T04:19:06;10.00;99.90
20041;DHT22;10181;48.072;9.884;2023-04-28T04:21:32;9.90;99.90
20041;DHT22;10181;48.072;9.884;2023-04-28T04:23:57;9.90;99.90
20041;DHT22;10181;48.072;9.884;2023-04-28T04:26:23;9.80;99.90
20041;DHT22;10181;48.072;9.884;2023-04-28T04:28:48;9.70;99.90
20041;DHT22;10181;48.072;9.884;2023-04-28T04:31:14;9.70;99.90
20041;DHT22;10181;48.072;9.884;2023-04-28T04:33:40;9.60;99.90
20041;DHT22;10181;48.072;9.884;2023-04-28T04:36:06;9.60;99.90
20041;DHT22;10181;48.072;9.884;2023-04-28T04:38:31;9.60;99.90
20041;DHT22;10181;48.072;9.884;2023-04-28T04:40:57;9.60;99.90
20041;DHT22;10181;48.072;9.884;2023-04-28T04:43:22;9.60;99.90
20041;DHT22;10181;48.072;9.884;2023-04-28T04:45:48;9.70;99.90
20041;DHT22;10181;48.072;9.884;2023-04-28T04:48:14;9.70;99.90
20041;DHT22;10181;48.072;9.884;2023-04-28T04:50:40;9.70;99.90
20041;DHT22;10181;48.072;9.884;2023-04-28T04:53:06;9.70;99.90
20041;DHT22;10181;48.072;9.884;2023-04-28T04:55:32;9.70;99.90
20041;DHT22;10181;48.072;9.884;2023-04-28T04:57:58;9.70;99.90
20041;DHT22;10181;48.072;9.884;2023-04-28T05:00:23;9.70;99.90
20041;DHT22;10181;48.072;9.884;2023-04-28T05:02:49;9.80;99.90
20041;DHT22;10181;48.072;9.884;2023-04-28T05:05:15;9.80;99.90
20041;DHT22;10181;48.072;9.884;2023-04-28T05:07:42;9.80;99.90
20041;DHT22;10181;48.072;9.884;2023-04-28T05:10:08;9.80;99.90
20041;DHT22;10181;48.072;9.884;2023-04-28T05:12:36;9.80;99.90
20041;DHT22;10181;48.072;9.884;2023-04-28T05:15:01;9.80;99.90
20041;DHT22;10181;48.072;9.884;2023-04-28T05:17:27;9.80;99.90
20041;DHT22;10181;48.072;9.884;2023-04-28T05:19:52;9.80;99.90
20041;DHT22;10181;48.072;9.884;2023-04-28T05:22:18;9.90;99.90
20041;DHT22;10181;48.072;9.884;2023-04-28T05:24:44;9.90;99.90
20041;DHT22;10181;48.072;9.884;2023-04-28T05:27:09;9.90;99.90
20041;DHT22;10181;48.072;9.884;2023-04-28T05:29:35;9.90;99.90
20041;DHT22;10181;48.072;9.884;2023-04-28T05:32:01;9.90;99.90
20041;DHT22;10181;48.072;9.884;2023-04-28T05:34:27;9.90;99.90
20041;DHT22;10181;48.072;9.884;2023-04-28T05:36:52;9.90;99.90
20041;DHT22;10181;48.072;9.884;2023-04-28T05:39:18;9.90;99.90
20041;DHT22;10181;48.072;9.884;2023-04-28T05:41:44;9.90;99.90
20041;DHT22;10181;48.072;9.884;2023-04-28T05:44:09;9.90;99.90
20041;DHT22;10181;48.072;9.884;2023-04-28T05:46:35;9.90;99.90
20041;DHT22;10181;48.072;9.884;2023-04-28T05:49:01;9.90;99.90
20041;DHT22;10181;48.072;9.884;2023-04-28T05:51:26;9.90;99.90
20041;DHT22;10181;48.072;9.884;2023-04-28T05:53:52;9.90;99.90
20041;DHT22;10181;48.072;9.884;2023-04-28T05:56:18;10.00;99.90
20041;DHT22;10181;48.072;9.884;2023-04-28T05:58:44;10.00;99.90
20041;DHT22;10181;48.072;9.884;2023-04-28T06:01:11;10.00;99.90
20041;DHT22;10181;48.072;9.884;2023-04-28T06:03:37;10.10;99.90
20041;DHT22;10181;48.072;9.884;2023-04-28T06:06:06;10.10;99.90
20041;DHT22;10181;48.072;9.884;2023-04-28T06:08:32;10.10;99.90
20041;DHT22;10181;48.072;9.884;2023-04-28T06:10:57;10.10;99.90
20041;DHT22;10181;48.072;9.884;2023-04-28T06:13:23;10.10;99.90
20041;DHT22;10181;48.072;9.884;2023-04-28T06:15:49;10.10;99.90
20041;DHT22;10181;48.072;9.884;2023-04-28T06:18:14;10.10;99.90
20041;DHT22;10181;48.072;9.884;2023-04-28T06:20:41;10.00;99.90
20041;DHT22;10181;48.072;9.884;2023-04-28T06:23:07;10.00;99.90
20041;DHT22;10181;48.072;9.884;2023-04-28T06:25:36;10.00;99.90
20041;DHT22;10181;48.072;9.884;2023-04-28T06:28:02;9.90;99.90
20041;DHT22;10181;48.072;9.884;2023-04-28T06:30:28;9.90;99.90
20041;DHT22;10181;48.072;9.884;2023-04-28T06:32:54;9.90;99.90
20041;DHT22;10181;48.072;9.884;2023-04-28T06:35:22;9.90;99.90
20041;DHT22;10181;48.072;9.884;2023-04-28T06:37:47;9.90;99.90
20041;DHT22;10181;48.072;9.884;2023-04-28T06:40:13;9.90;99.90
20041;DHT22;10181;48.072;9.884;2023-04-28T06:42:39;9.90;99.90
20041;DHT22;10181;48.072;9.884;2023-04-28T06:45:05;9.90;99.90
20041;DHT22;10181;48.072;9.884;2023-04-28T06:47:30;9.90;99.90
20041;DHT22;10181;48.072;9.884;2023-04-28T06:49:56;9.90;99.90
20041;DHT22;10181;48.072;9.884;2023-04-28T06:52:22;9.90;99.90
20041;DHT22;10181;48.072;9.884;2023-04-28T06:54:49;9.80;99.90
20041;DHT22;10181;48.072;9.884;2023-04-28T06:57:15;9.80;99.90
20041;DHT22;10181;48.072;9.884;2023-04-28T06:59:40;9.80;99.90
20041;DHT22;10181;48.072;9.884;2023-04-28T07:02:08;9.80;99.90
20041;DHT22;10181;48.072;9.884;2023-04-28T07:04:35;9.80;99.90
20041;DHT22;10181;48.072;9.884;2023-04-28T07:07:00;9.80;99.90
20041;DHT22;10181;48.072;9.884;2023-04-28T07:09:26;9.80;99.90
20041;DHT22;10181;48.072;9.884;2023-04-28T07:11:52;9.80;99.90
20041;DHT22;10181;48.072;9.884;2023-04-28T07:14:17;9.80;99.90
20041;DHT22;10181;48.072;9.884;2023-04-28T07:16:43;9.80;99.90
20041;DHT22;10181;48.072;9.884;2023-04-28T07:19:08;9.80;99.90
20041;DHT22;10181;48.072;9.884;2023-04-28T07:21:34;9.80;99.90
20041;DHT22;10181;48.072;9.884;2023-04-28T07:24:00;9.90;99.90
20041;DHT22;10181;48.072;9.884;2023-04-28T07:26:26;9.90;99.90
20041;DHT22;10181;48.072;9.884;2023-04-28T07:28:51;9.90;99.90
20041;DHT22;10181;48.072;9.884;2023-04-28T07:31:17;9.90;99.90
20041;DHT22;10181;48.072;9.884;2023-04-28T07:33:43;9.90;99.90
20041;DHT22;10181;48.072;9.884;2023-04-28T07:36:08;10.00;99.90
20041;DHT22;10181;48.072;9.884;2023-04-28T07:38:34;10.00;99.90
20041;DHT22;10181;48.072;9.884;2023-04-28T07:41:02;10.00;99.90
20041;DHT22;10181;48.072;9.884;2023-04-28T07:43:28;10.00;99.90
20041;DHT22;10181;48.072;9.884;2023-04-28T07:45:54;10.10;99.90
20041;DHT22;10181;48.072;9.884;2023-04-28T07:48:20;10.10;99.90
20041;DHT22;10181;48.072;9.884;2023-04-28T07:50:46;10.10;99.90
20041;DHT22;10181;48.072;9.884;2023-04-28T07:53:11;10.20;99.90
20041;DHT22;10181;48.072;9.884;2023-04-28T07:55:37;10.20;99.90
20041;DHT22;10181;48.072;9.884;2023-04-28T07:58:03;10.30;99.90
20041;DHT22;10181;48.072;9.884;2023-04-28T08:00:28;10.30;99.90
20041;DHT22;10181;48.072;9.884;2023-04-28T08:02:54;10.30;99.90
20041;DHT22;10181;48.072;9.884;2023-04-28T08:05:21;10.30;99.90
20041;DHT22;10181;48.072;9.884;2023-04-28T08:07:46;10.40;99.90
20041;DHT22;10181;48.072;9.884;2023-04-28T08:10:12;10.40;99.90
20041;DHT22;10181;48.072;9.884;2023-04-28T08:12:38;10.40;99.90
20041;DHT22;10181;48.072;9.884;2023-04-28T08:15:05;10.40;99.90
20041;DHT22;10181;48.072;9.884;2023-04-28T08:17:31;10.50;99.90
20041;DHT22;10181;48.072;9.884;2023-04-28T08:19:57;10.60;99.90
20041;DHT22;10181;48.072;9.884;2023-04-28T08:22:23;10.70;99.90
20041;DHT22;10181;48.072;9.884;2023-04-28T08:24:48;10.70;99.90
20041;DHT22;10181;48.072;9.884;2023-04-28T08:27:14;10.70;99.90
20041;DHT22;10181;48.072;9.884;2023-04-28T08:29:40;10.70;99.90
20041;DHT22;10181;48.072;9.884;2023-04-28T08:32:06;10.80;99.90
20041;DHT22;10181;48.072;9.884;2023-04-28T08:34:32;10.70;99.90
20041;DHT22;10181;48.072;9.884;2023-04-28T08:36:57;10.80;99.90
20041;DHT22;10181;48.072;9.884;2023-04-28T08:39:24;10.80;99.90
20041;DHT22;10181;48.072;9.884;2023-04-28T08:41:51;10.80;99.90
20041;DHT22;10181;48.072;9.884;2023-04-28T08:44:17;10.80;99.90
20041;DHT22;10181;48.072;9.884;2023-04-28T08:46:43;10.90;99.90
20041;DHT22;10181;48.072;9.884;2023-04-28T08:49:16;10.90;99.90
20041;DHT22;10181;48.072;9.884;2023-04-28T08:51:49;10.90;99.90
20041;DHT22;10181;48.072;9.884;2023-04-28T08:54:16;10.90;99.90
20041;DHT22;10181;48.072;9.884;2023-04-28T08:56:43;10.90;99.90
20041;DHT22;10181;48.072;9.884;2023-04-28T08:59:10;11.00;99.90
20041;DHT22;10181;48.072;9.884;2023-04-28T09:01:36;10.90;99.90
20041;DHT22;10181;48.072;9.884;2023-04-28T09:04:02;10.90;99.90
20041;DHT22;10181;48.072;9.884;2023-04-28T09:06:34;10.90;99.90
20041;DHT22;10181;48.072;9.884;2023-04-28T09:09:25;10.90;99.90
20041;DHT22;10181;48.072;9.884;2023-04-28T09:11:58;10.90;99.90
20041;DHT22;10181;48.072;9.884;2023-04-28T09:14:28;11.00;99.90
20041;DHT22;10181;48.072;9.884;2023-04-28T09:16:54;11.00;99.90
20041;DHT22;10181;48.072;9.884;2023-04-28T09:19:21;11.00;99.90
20041;DHT22;10181;48.072;9.884;2023-04-28T09:26:51;11.10;99.90
20041;DHT22;10181;48.072;9.884;2023-04-28T09:29:17;11.10;99.90
20041;DHT22;10181;48.072;9.884;2023-04-28T09:31:43;11.10;99.90
20041;DHT22;10181;48.072;9.884;2023-04-28T09:34:08;11.20;99.90
20041;DHT22;10181;48.072;9.884;2023-04-28T09:36:36;11.20;99.90
20041;DHT22;10181;48.072;9.884;2023-04-28T09:39:02;11.20;99.90
20041;DHT22;10181;48.072;9.884;2023-04-28T09:41:41;11.30;99.90
20041;DHT22;10181;48.072;9.884;2023-04-28T09:44:17;11.40;99.90
20041;DHT22;10181;48.072;9.884;2023-04-28T09:46:44;11.40;99.90
20041;DHT22;10181;48.072;9.884;2023-04-28T09:49:11;11.50;99.90
20041;DHT22;10181;48.072;9.884;2023-04-28T09:51:37;11.60;99.90
20041;DHT22;10181;48.072;9.884;2023-04-28T09:54:03;11.50;99.90
20041;DHT22;10181;48.072;9.884;2023-04-28T09:56:31;11.50;99.90
20041;DHT22;10181;48.072;9.884;2023-04-28T09:58:58;11.50;99.90
20041;DHT22;10181;48.072;9.884;2023-04-28T10:01:26;11.50;99.90
20041;DHT22;10181;48.072;9.884;2023-04-28T10:03:53;11.50;99.90
20041;DHT22;10181;48.072;9.884;2023-04-28T10:06:21;11.50;99.90
20041;DHT22;10181;48.072;9.884;2023-04-28T10:08:48;11.50;99.90
20041;DHT22;10181;48.072;9.884;2023-04-28T10:11:15;11.40;99.90
20041;DHT22;10181;48.072;9.884;2023-04-28T10:13:42;11.40;99.90
20041;DHT22;10181;48.072;9.884;2023-04-28T10:16:09;11.40;99.90
20041;DHT22;10181;48.072;9.884;2023-04-28T10:18:36;11.40;99.90
20041;DHT22;10181;48.072;9.884;2023-04-28T10:21:03;11.40;99.90
20041;DHT22;10181;48.072;9.884;2023-04-28T10:26:20;11.40;99.90
20041;DHT22;10181;48.072;9.884;2023-04-28T10:28:49;11.50;99.90
20041;DHT22;10181;48.072;9.884;2023-04-28T10:31:17;11.50;99.90
20041;DHT22;10181;48.072;9.884;2023-04-28T10:33:45;11.50;99.90
20041;DHT22;10181;48.072;9.884;2023-04-28T10:36:10;11.50;99.90
20041;DHT22;10181;48.072;9.884;2023-04-28T10:39:10;11.50;99.90
20041;DHT22;10181;48.072;9.884;2023-04-28T10:41:37;11.50;99.90
20041;DHT22;10181;48.072;9.884;2023-04-28T11:00:41;11.80;99.90
20041;DHT22;10181;48.072;9.884;2023-04-28T11:03:07;11.70;99.90
20041;DHT22;10181;48.072;9.884;2023-04-28T11:05:32;11.80;99.90
20041;DHT22;10181;48.072;9.884;2023-04-28T11:11:16;11.70;99.90
20041;DHT22;10181;48.072;9.884;2023-04-28T11:13:42;11.70;99.90
20041;DHT22;10181;48.072;9.884;2023-04-28T11:16:13;11.60;99.90
20041;DHT22;10181;48.072;9.884;2023-04-28T11:18:50;11.60;99.90
20041;DHT22;10181;48.072;9.884;2023-04-28T11:21:17;11.60;99.90
20041;DHT22;10181;48.072;9.884;2023-04-28T11:23:44;11.70;99.90
20041;DHT22;10181;48.072;9.884;2023-04-28T11:26:09;11.70;99.90
20041;DHT22;10181;48.072;9.884;2023-04-28T11:28:35;11.80;99.90
20041;DHT22;10181;48.072;9.884;2023-04-28T11:31:15;11.80;99.90
20041;DHT22;10181;48.072;9.884;2023-04-28T11:34:07;11.80;99.90
20041;DHT22;10181;48.072;9.884;2023-04-28T11:36:40;11.70;99.90
20041;DHT22;10181;48.072;9.884;2023-04-28T11:39:07;11.70;99.90
20041;DHT22;10181;48.072;9.884;2023-04-28T11:41:34;11.60;99.90
20041;DHT22;10181;48.072;9.884;2023-04-28T11:44:15;11.70;99.90
20041;DHT22;10181;48.072;9.884;2023-04-28T11:46:52;11.70;99.90
20041;DHT22;10181;48.072;9.884;2023-04-28T11:49:21;11.70;99.90
20041;DHT22;10181;48.072;9.884;2023-04-28T11:51:49;11.70;99.90
20041;DHT22;10181;48.072;9.884;2023-04-28T11:54:26;11.80;99.90
20041;DHT22;10181;48.072;9.884;2023-04-28T11:56:53;11.90;99.90
20041;DHT22;10181;48.072;9.884;2023-04-28T11:59:26;12.00;99.90
20041;DHT22;10181;48.072;9.884;2023-04-28T12:01:57;12.00;99.90
20041;DHT22;10181;48.072;9.884;2023-04-28T12:04:29;12.00;99.90
20041;DHT22;10181;48.072;9.884;2023-04-28T12:09:45;12.00;99.90
20041;DHT22;10181;48.072;9.884;2023-04-28T12:12:26;12.00;99.90
20041;DHT22;10181;48.072;9.884;2023-04-28T12:15:00;12.00;99.90
20041;DHT22;10181;48.072;9.884;2023-04-28T12:17:28;12.10;99.90
20041;DHT22;10181;48.072;9.884;2023-04-28T12:19:55;12.10;99.90
20041;DHT22;10181;48.072;9.884;2023-04-28T12:22:21;12.20;99.90
20041;DHT22;10181;48.072;9.884;2023-04-28T12:25:07;12.20;99.90
20041;DHT22;10181;48.072;9.884;2023-04-28T12:27:34;12.20;99.90
20041;DHT22;10181;48.072;9.884;2023-04-28T12:30:03;12.20;99.90
20041;DHT22;10181;48.072;9.884;2023-04-28T12:32:37;12.20;99.90
20041;DHT22;10181;48.072;9.884;2023-04-28T12:35:04;12.20;99.90
20041;DHT22;10181;48.072;9.884;2023-04-28T12:37:30;12.30;99.90
20041;DHT22;10181;48.072;9.884;2023-04-28T12:39:56;12.30;99.90
20041;DHT22;10181;48.072;9.884;2023-04-28T12:42:22;12.40;99.90
20041;DHT22;10181;48.072;9.884;2023-04-28T12:44:48;12.50;99.90
20041;DHT22;10181;48.072;9.884;2023-04-28T12:47:15;12.50;99.90
20041;DHT22;10181;48.072;9.884;2023-04-28T12:49:42;12.60;99.90
20041;DHT22;10181;48.072;9.884;2023-04-28T12:52:09;12.70;99.90
20041;DHT22;10181;48.072;9.884;2023-04-28T12:54:35;12.70;99.90
20041;DHT22;10181;48.072;9.884;2023-04-28T12:57:03;12.70;99.90
20041;DHT22;10181;48.072;9.884;2023-04-28T12:59:30;12.80;99.90
20041;DHT22;10181;48.072;9.884;2023-04-28T13:01:55;12.70;99.90
20041;DHT22;10181;48.072;9.884;2023-04-28T13:04:21;12.70;99.90
20041;DHT22;10181;48.072;9.884;2023-04-28T13:06:50;12.70;99.90
20041;DHT22;10181;48.072;9.884;2023-04-28T13:09:16;12.70;99.90
20041;DHT22;10181;48.072;9.884;2023-04-28T13:11:42;12.70;99.90
20041;DHT22;10181;48.072;9.884;2023-04-28T13:14:08;12.60;99.90
20041;DHT22;10181;48.072;9.884;2023-04-28T13:16:34;12.70;99.90
20041;DHT22;10181;48.072;9.884;2023-04-28T13:19:00;12.70;99.90
20041;DHT22;10181;48.072;9.884;2023-04-28T13:21:26;12.70;99.90
20041;DHT22;10181;48.072;9.884;2023-04-28T13:23:53;12.70;99.90
20041;DHT22;10181;48.072;9.884;2023-04-28T13:26:19;12.70;99.90
20041;DHT22;10181;48.072;9.884;2023-04-28T13:28:46;12.70;99.90
20041;DHT22;10181;48.072;9.884;2023-04-28T13:31:13;12.80;99.90
20041;DHT22;10181;48.072;9.884;2023-04-28T13:33:39;12.80;99.90
20041;DHT22;10181;48.072;9.884;2023-04-28T13:36:05;13.00;99.90
20041;DHT22;10181;48.072;9.884;2023-04-28T13:38:32;13.00;99.90
20041;DHT22;10181;48.072;9.884;2023-04-28T13:40:58;12.90;99.90
20041;DHT22;10181;48.072;9.884;2023-04-28T13:43:23;12.90;99.90
20041;DHT22;10181;48.072;9.884;2023-04-28T13:45:50;12.80;99.90
20041;DHT22;10181;48.072;9.884;2023-04-28T13:48:15;12.80;99.90
20041;DHT22;10181;48.072;9.884;2023-04-28T13:50:41;12.80;99.90
20041;DHT22;10181;48.072;9.884;2023-04-28T13:53:07;12.70;99.90
20041;DHT22;10181;48.072;9.884;2023-04-28T13:55:33;12.70;99.90
20041;DHT22;10181;48.072;9.884;2023-04-28T13:57:58;12.70;99.90
20041;DHT22;10181;48.072;9.884;2023-04-28T14:00:29;12.70;99.90
20041;DHT22;10181;48.072;9.884;2023-04-28T14:02:55;12.70;99.90
20041;DHT22;10181;48.072;9.884;2023-04-28T14:05:21;12.80;99.90
20041;DHT22;10181;48.072;9.884;2023-04-28T14:07:47;12.80;99.90
20041;DHT22;10181;48.072;9.884;2023-04-28T14:10:12;12.90;99.90
20041;DHT22;10181;48.072;9.884;2023-04-28T14:12:38;13.00;99.90
20041;DHT22;10181;48.072;9.884;2023-04-28T14:15:05;13.10;99.90
20041;DHT22;10181;48.072;9.884;2023-04-28T14:17:31;13.10;99.90
20041;DHT22;10181;48.072;9.884;2023-04-28T14:19:59;13.20;99.90
20041;DHT22;10181;48.072;9.884;2023-04-28T14:22:25;13.20;99.90
20041;DHT22;10181;48.072;9.884;2023-04-28T14:24:51;13.30;99.90
20041;DHT22;10181;48.072;9.884;2023-04-28T14:27:17;13.20;99.90
20041;DHT22;10181;48.072;9.884;2023-04-28T14:29:43;13.30;99.90
20041;DHT22;10181;48.072;9.884;2023-04-28T14:32:12;13.40;99.90
20041;DHT22;10181;48.072;9.884;2023-04-28T14:34:38;13.50;99.90
20041;DHT22;10181;48.072;9.884;2023-04-28T14:37:05;13.60;99.90
20041;DHT22;10181;48.072;9.884;2023-04-28T14:39:30;13.60;99.90
20041;DHT22;10181;48.072;9.884;2023-04-28T14:41:56;13.60;99.90
20041;DHT22;10181;48.072;9.884;2023-04-28T14:44:22;13.60;99.90
20041;DHT22;10181;48.072;9.884;2023-04-28T14:46:47;13.70;99.90
20041;DHT22;10181;48.072;9.884;2023-04-28T14:49:13;13.70;99.90
20041;DHT22;10181;48.072;9.884;2023-04-28T14:51:39;13.70;99.90
20041;DHT22;10181;48.072;9.884;2023-04-28T14:54:05;13.60;99.90
20041;DHT22;10181;48.072;9.884;2023-04-28T14:56:30;13.60;99.90
20041;DHT22;10181;48.072;9.884;2023-04-28T14:58:56;13.50;99.90
20041;DHT22;10181;48.072;9.884;2023-04-28T15:01:22;13.60;99.90
20041;DHT22;10181;48.072;9.884;2023-04-28T15:03:47;13.60;99.90
20041;DHT22;10181;48.072;9.884;2023-04-28T15:06:13;13.60;99.90
20041;DHT22;10181;48.072;9.884;2023-04-28T15:08:38;13.60;99.90
20041;DHT22;10181;48.072;9.884;2023-04-28T15:11:05;13.40;99.90
20041;DHT22;10181;48.072;9.884;2023-04-28T15:13:30;13.40;99.90
20041;DHT22;10181;48.072;9.884;2023-04-28T15:15:56;13.40;99.90
20041;DHT22;10181;48.072;9.884;2023-04-28T15:18:22;13.40;99.90
20041;DHT22;10181;48.072;9.884;2023-04-28T15:20:49;13.40;99.90
20041;DHT22;10181;48.072;9.884;2023-04-28T15:23:15;13.40;99.90
20041;DHT22;10181;48.072;9.884;2023-04-28T15:25:40;13.40;99.90
20041;DHT22;10181;48.072;9.884;2023-04-28T15:28:06;13.40;99.90
20041;DHT22;10181;48.072;9.884;2023-04-28T15:30:32;13.40;99.90
20041;DHT22;10181;48.072;9.884;2023-04-28T15:32:59;13.50;99.90
20041;DHT22;10181;48.072;9.884;2023-04-28T15:35:24;13.60;99.90
20041;DHT22;10181;48.072;9.884;2023-04-28T15:37:50;13.60;99.90
20041;DHT22;10181;48.072;9.884;2023-04-28T15:40:17;13.60;99.90
20041;DHT22;10181;48.072;9.884;2023-04-28T15:42:44;13.70;99.90
20041;DHT22;10181;48.072;9.884;2023-04-28T15:45:14;13.70;99.90
20041;DHT22;10181;48.072;9.884;2023-04-28T15:47:41;13.70;99.90
20041;DHT22;10181;48.072;9.884;2023-04-28T15:50:08;13.70;99.90
20041;DHT22;10181;48.072;9.884;2023-04-28T15:52:40;13.70;99.90
20041;DHT22;10181;48.072;9.884;2023-04-28T15:55:16;13.80;99.90
20041;DHT22;10181;48.072;9.884;2023-04-28T15:57:42;13.80;99.90
20041;DHT22;10181;48.072;9.884;2023-04-28T16:00:09;13.80;99.90
20041;DHT22;10181;48.072;9.884;2023-04-28T16:02:36;13.80;99.90
20041;DHT22;10181;48.072;9.884;2023-04-28T16:05:02;13.80;99.90